Saint Brieux, Canada
Current Conditions -  °F | °C
As of 2:00 AM on Wednesday 22 Oct 2014 (Local Time) from CYPA Reporting Station
Broken Clouds Broken Clouds  
Wind Chill: 52°   Ceiling: 22000
Heat Index: 52°   Visibility: 15mi
Dew Point: 43°   Wind: 5mph
Humidity: 71%   Direction: 320°NW
Pressure: 29.6"   Gusts: NA
Location:  52.63°N, 104.88°W
Report Text: CYPA 220800Z 32004KT 15SM SCT120 BKN220 11/06 A2960 RMK AC3CI3 SLP032 DENSITY ALT 1600FT
Loading
Personal Weather Stations






























Interactive Weather Map
Tropical Storm Tracking
New forecast layout! Learn more

10-Day Weather Forecast

Advertisements
Track Severe Weather on mobile